sensor_id;sensor_type;location;lat;lon;timestamp;temperature;humidity
66928;DHT22;59882;45.624;11.698;2022-08-18T00:02:09;24.60;78.30
66928;DHT22;59882;45.624;11.698;2022-08-18T00:04:36;24.60;77.70
66928;DHT22;59882;45.624;11.698;2022-08-18T00:07:08;24.60;77.70
66928;DHT22;59882;45.624;11.698;2022-08-18T00:09:36;24.60;78.40
66928;DHT22;59882;45.624;11.698;2022-08-18T00:12:05;24.60;78.70
66928;DHT22;59882;45.624;11.698;2022-08-18T00:14:31;24.50;78.80
66928;DHT22;59882;45.624;11.698;2022-08-18T00:16:57;24.50;78.60
66928;DHT22;59882;45.624;11.698;2022-08-18T00:19:23;24.50;78.00
66928;DHT22;59882;45.624;11.698;2022-08-18T00:21:49;24.50;78.20
66928;DHT22;59882;45.624;11.698;2022-08-18T00:24:15;24.50;78.70
66928;DHT22;59882;45.624;11.698;2022-08-18T00:26:40;24.50;78.60
66928;DHT22;59882;45.624;11.698;2022-08-18T00:29:06;24.60;78.00
66928;DHT22;59882;45.624;11.698;2022-08-18T00:31:32;24.60;77.90
66928;DHT22;59882;45.624;11.698;2022-08-18T00:33:58;24.60;78.10
66928;DHT22;59882;45.624;11.698;2022-08-18T00:36:25;24.60;78.20
66928;DHT22;59882;45.624;11.698;2022-08-18T00:38:51;24.60;78.00
66928;DHT22;59882;45.624;11.698;2022-08-18T00:41:17;24.60;78.10
66928;DHT22;59882;45.624;11.698;2022-08-18T00:43:47;24.60;78.20
66928;DHT22;59882;45.624;11.698;2022-08-18T00:46:22;24.60;78.50
66928;DHT22;59882;45.624;11.698;2022-08-18T00:48:49;24.60;78.70
66928;DHT22;59882;45.624;11.698;2022-08-18T00:51:28;24.50;78.50
66928;DHT22;59882;45.624;11.698;2022-08-18T00:56:48;24.50;78.80
66928;DHT22;59882;45.624;11.698;2022-08-18T00:59:30;24.50;78.60
66928;DHT22;59882;45.624;11.698;2022-08-18T01:02:01;24.60;78.80
66928;DHT22;59882;45.624;11.698;2022-08-18T01:04:45;24.60;78.80
66928;DHT22;59882;45.624;11.698;2022-08-18T01:07:19;24.60;78.80
66928;DHT22;59882;45.624;11.698;2022-08-18T01:09:47;24.50;79.00
66928;DHT22;59882;45.624;11.698;2022-08-18T01:12:13;24.50;78.90
66928;DHT22;59882;45.624;11.698;2022-08-18T01:14:39;24.50;78.70
66928;DHT22;59882;45.624;11.698;2022-08-18T01:17:04;24.50;78.50
66928;DHT22;59882;45.624;11.698;2022-08-18T01:19:48;24.50;78.10
66928;DHT22;59882;45.624;11.698;2022-08-18T01:25:15;24.50;76.70
66928;DHT22;59882;45.624;11.698;2022-08-18T01:28:00;24.50;76.10
66928;DHT22;59882;45.624;11.698;2022-08-18T01:30:29;24.50;75.60
66928;DHT22;59882;45.624;11.698;2022-08-18T01:32:55;24.50;75.10
66928;DHT22;59882;45.624;11.698;2022-08-18T01:35:22;24.50;74.80
66928;DHT22;59882;45.624;11.698;2022-08-18T01:37:50;24.50;74.80
66928;DHT22;59882;45.624;11.698;2022-08-18T01:40:22;24.40;74.70
66928;DHT22;59882;45.624;11.698;2022-08-18T01:42:48;24.40;74.60
66928;DHT22;59882;45.624;11.698;2022-08-18T01:45:16;24.40;74.50
66928;DHT22;59882;45.624;11.698;2022-08-18T01:47:43;24.40;74.40
66928;DHT22;59882;45.624;11.698;2022-08-18T01:50:09;24.40;74.40
66928;DHT22;59882;45.624;11.698;2022-08-18T01:52:36;24.40;74.40
66928;DHT22;59882;45.624;11.698;2022-08-18T01:55:04;24.40;74.40
66928;DHT22;59882;45.624;11.698;2022-08-18T01:57:29;24.40;74.30
66928;DHT22;59882;45.624;11.698;2022-08-18T01:59:55;24.40;74.40
66928;DHT22;59882;45.624;11.698;2022-08-18T02:02:27;24.40;74.60
66928;DHT22;59882;45.624;11.698;2022-08-18T02:05:03;24.40;74.90
66928;DHT22;59882;45.624;11.698;2022-08-18T02:07:29;24.30;75.30
66928;DHT22;59882;45.624;11.698;2022-08-18T02:09:55;24.40;75.10
66928;DHT22;59882;45.624;11.698;2022-08-18T02:12:21;24.40;76.10
66928;DHT22;59882;45.624;11.698;2022-08-18T02:14:46;24.40;76.50
66928;DHT22;59882;45.624;11.698;2022-08-18T02:17:13;24.40;76.50
66928;DHT22;59882;45.624;11.698;2022-08-18T02:19:45;24.40;76.50
66928;DHT22;59882;45.624;11.698;2022-08-18T02:22:14;24.40;76.60
66928;DHT22;59882;45.624;11.698;2022-08-18T02:24:41;24.40;76.60
66928;DHT22;59882;45.624;11.698;2022-08-18T02:27:08;24.40;76.70
66928;DHT22;59882;45.624;11.698;2022-08-18T02:29:35;24.40;77.10
66928;DHT22;59882;45.624;11.698;2022-08-18T02:32:01;24.40;76.50
66928;DHT22;59882;45.624;11.698;2022-08-18T02:34:26;24.40;76.90
66928;DHT22;59882;45.624;11.698;2022-08-18T02:36:52;24.40;76.70
66928;DHT22;59882;45.624;11.698;2022-08-18T02:39:18;24.40;76.70
66928;DHT22;59882;45.624;11.698;2022-08-18T02:41:44;24.40;76.80
66928;DHT22;59882;45.624;11.698;2022-08-18T02:44:10;24.40;76.80
66928;DHT22;59882;45.624;11.698;2022-08-18T02:46:37;24.40;76.70
66928;DHT22;59882;45.624;11.698;2022-08-18T02:49:04;24.40;76.60
66928;DHT22;59882;45.624;11.698;2022-08-18T02:51:30;24.40;76.40
66928;DHT22;59882;45.624;11.698;2022-08-18T02:53:56;24.40;76.30
66928;DHT22;59882;45.624;11.698;2022-08-18T02:56:26;24.40;76.10
66928;DHT22;59882;45.624;11.698;2022-08-18T02:59:00;24.40;76.30
66928;DHT22;59882;45.624;11.698;2022-08-18T03:01:31;24.40;76.40
66928;DHT22;59882;45.624;11.698;2022-08-18T03:03:58;24.40;76.40
66928;DHT22;59882;45.624;11.698;2022-08-18T03:06:26;24.40;76.40
66928;DHT22;59882;45.624;11.698;2022-08-18T03:08:52;24.40;76.00
66928;DHT22;59882;45.624;11.698;2022-08-18T03:11:27;24.40;76.00
66928;DHT22;59882;45.624;11.698;2022-08-18T03:13:53;24.40;75.90
66928;DHT22;59882;45.624;11.698;2022-08-18T03:16:21;24.40;75.80
66928;DHT22;59882;45.624;11.698;2022-08-18T03:18:49;24.40;75.80
66928;DHT22;59882;45.624;11.698;2022-08-18T03:21:21;24.40;75.70
66928;DHT22;59882;45.624;11.698;2022-08-18T03:23:48;24.40;75.70
66928;DHT22;59882;45.624;11.698;2022-08-18T03:26:16;24.40;75.60
66928;DHT22;59882;45.624;11.698;2022-08-18T03:28:44;24.40;75.90
66928;DHT22;59882;45.624;11.698;2022-08-18T03:31:11;24.40;75.70
66928;DHT22;59882;45.624;11.698;2022-08-18T03:33:39;24.40;75.90
66928;DHT22;59882;45.624;11.698;2022-08-18T03:36:08;24.50;76.40
66928;DHT22;59882;45.624;11.698;2022-08-18T03:38:35;24.40;76.20
66928;DHT22;59882;45.624;11.698;2022-08-18T03:41:00;24.40;76.60
66928;DHT22;59882;45.624;11.698;2022-08-18T03:43:26;24.40;76.60
66928;DHT22;59882;45.624;11.698;2022-08-18T03:45:53;24.40;76.50
66928;DHT22;59882;45.624;11.698;2022-08-18T03:48:21;24.40;76.60
66928;DHT22;59882;45.624;11.698;2022-08-18T03:50:47;24.30;77.60
66928;DHT22;59882;45.624;11.698;2022-08-18T03:53:13;24.00;78.40
66928;DHT22;59882;45.624;11.698;2022-08-18T03:55:41;23.60;79.20
66928;DHT22;59882;45.624;11.698;2022-08-18T03:58:07;23.50;78.60
66928;DHT22;59882;45.624;11.698;2022-08-18T04:00:38;23.40;79.70
66928;DHT22;59882;45.624;11.698;2022-08-18T04:03:04;23.30;80.60
66928;DHT22;59882;45.624;11.698;2022-08-18T04:05:30;22.80;84.50
66928;DHT22;59882;45.624;11.698;2022-08-18T04:07:56;22.30;86.20
66928;DHT22;59882;45.624;11.698;2022-08-18T04:10:23;22.10;87.90
66928;DHT22;59882;45.624;11.698;2022-08-18T04:12:49;22.00;87.40
66928;DHT22;59882;45.624;11.698;2022-08-18T04:15:16;21.80;87.10
66928;DHT22;59882;45.624;11.698;2022-08-18T04:17:42;21.50;87.70
66928;DHT22;59882;45.624;11.698;2022-08-18T04:20:10;21.40;87.30
66928;DHT22;59882;45.624;11.698;2022-08-18T04:22:37;21.40;87.10
66928;DHT22;59882;45.624;11.698;2022-08-18T04:25:03;21.40;86.60
66928;DHT22;59882;45.624;11.698;2022-08-18T04:27:30;21.40;84.90
66928;DHT22;59882;45.624;11.698;2022-08-18T04:29:55;21.30;82.70
66928;DHT22;59882;45.624;11.698;2022-08-18T04:32:22;21.30;83.20
66928;DHT22;59882;45.624;11.698;2022-08-18T04:34:48;21.40;81.80
66928;DHT22;59882;45.624;11.698;2022-08-18T04:37:14;21.30;80.30
66928;DHT22;59882;45.624;11.698;2022-08-18T04:39:41;21.30;81.40
66928;DHT22;59882;45.624;11.698;2022-08-18T04:42:07;21.30;82.10
66928;DHT22;59882;45.624;11.698;2022-08-18T04:44:34;21.40;81.80
66928;DHT22;59882;45.624;11.698;2022-08-18T04:47:03;21.40;80.60
66928;DHT22;59882;45.624;11.698;2022-08-18T04:49:29;21.40;81.10
66928;DHT22;59882;45.624;11.698;2022-08-18T04:51:57;21.40;81.80
66928;DHT22;59882;45.624;11.698;2022-08-18T04:54:41;21.50;82.00
66928;DHT22;59882;45.624;11.698;2022-08-18T04:59:33;21.60;81.80
66928;DHT22;59882;45.624;11.698;2022-08-18T05:02:00;21.70;82.00
66928;DHT22;59882;45.624;11.698;2022-08-18T05:04:25;21.70;82.00
66928;DHT22;59882;45.624;11.698;2022-08-18T05:06:53;21.80;81.80
66928;DHT22;59882;45.624;11.698;2022-08-18T05:09:19;21.70;81.60
66928;DHT22;59882;45.624;11.698;2022-08-18T05:11:44;21.80;81.20
66928;DHT22;59882;45.624;11.698;2022-08-18T05:14:11;21.90;81.30
66928;DHT22;59882;45.624;11.698;2022-08-18T05:16:37;21.90;81.30
66928;DHT22;59882;45.624;11.698;2022-08-18T05:19:09;21.90;81.70
66928;DHT22;59882;45.624;11.698;2022-08-18T05:21:36;21.90;81.60
66928;DHT22;59882;45.624;11.698;2022-08-18T05:24:04;22.00;81.30
66928;DHT22;59882;45.624;11.698;2022-08-18T05:26:30;22.00;80.70
66928;DHT22;59882;45.624;11.698;2022-08-18T05:28:56;22.00;80.80
66928;DHT22;59882;45.624;11.698;2022-08-18T05:31:24;22.10;81.00
66928;DHT22;59882;45.624;11.698;2022-08-18T05:33:51;22.10;81.20
66928;DHT22;59882;45.624;11.698;2022-08-18T05:41:45;22.10;81.00
66928;DHT22;59882;45.624;11.698;2022-08-18T05:44:18;22.20;80.30
66928;DHT22;59882;45.624;11.698;2022-08-18T05:46:55;22.20;80.00
66928;DHT22;59882;45.624;11.698;2022-08-18T05:49:24;22.20;80.10
66928;DHT22;59882;45.624;11.698;2022-08-18T05:54:50;22.20;80.20
66928;DHT22;59882;45.624;11.698;2022-08-18T05:57:44;22.30;80.50
66928;DHT22;59882;45.624;11.698;2022-08-18T06:00:11;22.30;80.00
66928;DHT22;59882;45.624;11.698;2022-08-18T06:02:39;22.40;79.50
66928;DHT22;59882;45.624;11.698;2022-08-18T06:05:24;22.40;79.90
66928;DHT22;59882;45.624;11.698;2022-08-18T06:08:02;22.40;80.00
66928;DHT22;59882;45.624;11.698;2022-08-18T06:10:29;22.40;80.00
66928;DHT22;59882;45.624;11.698;2022-08-18T06:12:59;22.40;80.20
66928;DHT22;59882;45.624;11.698;2022-08-18T06:18:36;22.40;79.60
66928;DHT22;59882;45.624;11.698;2022-08-18T06:37:29;22.70;78.50
66928;DHT22;59882;45.624;11.698;2022-08-18T06:39:57;22.80;78.40
66928;DHT22;59882;45.624;11.698;2022-08-18T06:42:25;22.90;78.30
66928;DHT22;59882;45.624;11.698;2022-08-18T06:45:00;22.90;77.00
66928;DHT22;59882;45.624;11.698;2022-08-18T06:50:28;23.00;77.60
66928;DHT22;59882;45.624;11.698;2022-08-18T06:53:02;23.10;78.00
66928;DHT22;59882;45.624;11.698;2022-08-18T06:55:44;23.10;77.60
66928;DHT22;59882;45.624;11.698;2022-08-18T07:03:15;23.40;76.80
66928;DHT22;59882;45.624;11.698;2022-08-18T07:08:38;23.50;77.10
66928;DHT22;59882;45.624;11.698;2022-08-18T07:11:30;23.50;76.70
66928;DHT22;59882;45.624;11.698;2022-08-18T07:16:36;23.60;75.50
66928;DHT22;59882;45.624;11.698;2022-08-18T07:19:12;23.60;75.20
66928;DHT22;59882;45.624;11.698;2022-08-18T07:21:39;23.70;75.10
66928;DHT22;59882;45.624;11.698;2022-08-18T07:24:24;23.70;73.60
66928;DHT22;59882;45.624;11.698;2022-08-18T07:27:04;23.70;74.00
66928;DHT22;59882;45.624;11.698;2022-08-18T07:29:33;23.60;74.20
66928;DHT22;59882;45.624;11.698;2022-08-18T07:32:07;23.60;75.40
66928;DHT22;59882;45.624;11.698;2022-08-18T07:34:42;23.70;76.10
66928;DHT22;59882;45.624;11.698;2022-08-18T07:37:20;23.70;75.40
66928;DHT22;59882;45.624;11.698;2022-08-18T07:39:54;23.70;75.30
66928;DHT22;59882;45.624;11.698;2022-08-18T07:42:34;23.80;75.60
66928;DHT22;59882;45.624;11.698;2022-08-18T07:48:04;23.90;74.70
66928;DHT22;59882;45.624;11.698;2022-08-18T07:50:27;24.00;74.60
66928;DHT22;59882;45.624;11.698;2022-08-18T07:55:33;23.90;74.80
66928;DHT22;59882;45.624;11.698;2022-08-18T07:58:17;23.90;74.80
66928;DHT22;59882;45.624;11.698;2022-08-18T08:00:55;23.90;74.50
66928;DHT22;59882;45.624;11.698;2022-08-18T08:03:49;23.70;73.90
66928;DHT22;59882;45.624;11.698;2022-08-18T08:06:26;23.50;75.30
66928;DHT22;59882;45.624;11.698;2022-08-18T08:09:24;23.20;77.60
66928;DHT22;59882;45.624;11.698;2022-08-18T08:11:58;22.40;80.10
66928;DHT22;59882;45.624;11.698;2022-08-18T08:14:43;22.20;80.60
66928;DHT22;59882;45.624;11.698;2022-08-18T08:25:36;21.80;80.90
66928;DHT22;59882;45.624;11.698;2022-08-18T08:31:09;21.50;82.90
66928;DHT22;59882;45.624;11.698;2022-08-18T08:33:55;21.50;82.70
66928;DHT22;59882;45.624;11.698;2022-08-18T08:36:27;21.40;83.40
66928;DHT22;59882;45.624;11.698;2022-08-18T08:39:03;21.40;83.40
66928;DHT22;59882;45.624;11.698;2022-08-18T08:41:52;21.50;83.30
66928;DHT22;59882;45.624;11.698;2022-08-18T08:44:41;21.50;83.00
66928;DHT22;59882;45.624;11.698;2022-08-18T08:47:25;21.70;82.60
66928;DHT22;59882;45.624;11.698;2022-08-18T08:49:57;21.80;82.70
66928;DHT22;59882;45.624;11.698;2022-08-18T08:52:45;22.00;82.00
66928;DHT22;59882;45.624;11.698;2022-08-18T08:55:20;22.10;82.00
66928;DHT22;59882;45.624;11.698;2022-08-18T09:00:40;22.40;81.60
66928;DHT22;59882;45.624;11.698;2022-08-18T09:03:18;22.70;81.10
66928;DHT22;59882;45.624;11.698;2022-08-18T09:22:30;23.90;75.90
66928;DHT22;59882;45.624;11.698;2022-08-18T09:25:00;24.00;75.20
66928;DHT22;59882;45.624;11.698;2022-08-18T09:27:43;24.10;74.60
66928;DHT22;59882;45.624;11.698;2022-08-18T09:30:36;24.20;72.60
66928;DHT22;59882;45.624;11.698;2022-08-18T09:38:24;24.50;71.70
66928;DHT22;59882;45.624;11.698;2022-08-18T09:41:25;24.60;71.30
66928;DHT22;59882;45.624;11.698;2022-08-18T09:44:11;24.60;69.40
66928;DHT22;59882;45.624;11.698;2022-08-18T09:51:58;24.60;70.00
66928;DHT22;59882;45.624;11.698;2022-08-18T09:54:27;24.60;69.20
66928;DHT22;59882;45.624;11.698;2022-08-18T10:01:57;24.60;69.90
66928;DHT22;59882;45.624;11.698;2022-08-18T10:04:40;24.60;70.00
66928;DHT22;59882;45.624;11.698;2022-08-18T10:09:56;24.60;70.10
66928;DHT22;59882;45.624;11.698;2022-08-18T10:13:14;24.60;70.30
66928;DHT22;59882;45.624;11.698;2022-08-18T10:15:55;24.60;70.70
66928;DHT22;59882;45.624;11.698;2022-08-18T10:18:35;24.60;72.00
66928;DHT22;59882;45.624;11.698;2022-08-18T10:36:56;24.20;76.20
66928;DHT22;59882;45.624;11.698;2022-08-18T10:39:29;24.10;76.00
66928;DHT22;59882;45.624;11.698;2022-08-18T10:42:27;24.10;76.20
66928;DHT22;59882;45.624;11.698;2022-08-18T10:47:38;23.90;76.00
66928;DHT22;59882;45.624;11.698;2022-08-18T10:50:19;23.90;76.10
66928;DHT22;59882;45.624;11.698;2022-08-18T11:01:26;23.70;77.20
66928;DHT22;59882;45.624;11.698;2022-08-18T11:06:43;23.40;79.10
66928;DHT22;59882;45.624;11.698;2022-08-18T11:09:11;23.40;79.70
66928;DHT22;59882;45.624;11.698;2022-08-18T11:11:40;23.30;78.80
66928;DHT22;59882;45.624;11.698;2022-08-18T11:19:40;22.90;81.00
66928;DHT22;59882;45.624;11.698;2022-08-18T11:22:21;22.60;81.10
66928;DHT22;59882;45.624;11.698;2022-08-18T11:24:47;22.40;81.80
66928;DHT22;59882;45.624;11.698;2022-08-18T11:27:25;22.20;80.90
66928;DHT22;59882;45.624;11.698;2022-08-18T11:29:52;22.00;81.20
66928;DHT22;59882;45.624;11.698;2022-08-18T11:32:27;21.90;81.80
66928;DHT22;59882;45.624;11.698;2022-08-18T11:39:50;21.50;81.60
66928;DHT22;59882;45.624;11.698;2022-08-18T11:42:19;21.50;81.70
66928;DHT22;59882;45.624;11.698;2022-08-18T11:44:53;21.50;81.70
66928;DHT22;59882;45.624;11.698;2022-08-18T11:47:20;21.50;81.90
66928;DHT22;59882;45.624;11.698;2022-08-18T11:52:48;21.60;81.60
66928;DHT22;59882;45.624;11.698;2022-08-18T11:55:29;21.60;81.20
66928;DHT22;59882;45.624;11.698;2022-08-18T11:57:56;21.70;81.10
66928;DHT22;59882;45.624;11.698;2022-08-18T12:00:52;21.80;80.50
66928;DHT22;59882;45.624;11.698;2022-08-18T12:03:38;21.90;80.30
66928;DHT22;59882;45.624;11.698;2022-08-18T12:06:17;21.90;79.90
66928;DHT22;59882;45.624;11.698;2022-08-18T12:09:05;21.90;80.10
66928;DHT22;59882;45.624;11.698;2022-08-18T12:11:35;21.90;80.90
66928;DHT22;59882;45.624;11.698;2022-08-18T12:14:17;22.00;80.80
66928;DHT22;59882;45.624;11.698;2022-08-18T12:16:43;22.00;81.80
66928;DHT22;59882;45.624;11.698;2022-08-18T12:19:11;22.20;81.80
66928;DHT22;59882;45.624;11.698;2022-08-18T12:21:43;22.30;80.80
66928;DHT22;59882;45.624;11.698;2022-08-18T12:24:27;22.40;80.30
66928;DHT22;59882;45.624;11.698;2022-08-18T12:26:54;22.50;80.70
66928;DHT22;59882;45.624;11.698;2022-08-18T12:29:20;22.70;80.40
66928;DHT22;59882;45.624;11.698;2022-08-18T12:31:49;22.90;80.10
66928;DHT22;59882;45.624;11.698;2022-08-18T12:34:25;22.90;79.90
66928;DHT22;59882;45.624;11.698;2022-08-18T12:36:56;23.10;79.80
66928;DHT22;59882;45.624;11.698;2022-08-18T12:39:23;23.30;78.70
66928;DHT22;59882;45.624;11.698;2022-08-18T12:41:48;23.40;77.50
66928;DHT22;59882;45.624;11.698;2022-08-18T12:44:14;23.60;77.70
66928;DHT22;59882;45.624;11.698;2022-08-18T12:46:41;23.80;77.40
66928;DHT22;59882;45.624;11.698;2022-08-18T12:49:11;24.00;77.20
66928;DHT22;59882;45.624;11.698;2022-08-18T12:51:39;24.20;75.60
66928;DHT22;59882;45.624;11.698;2022-08-18T12:54:05;24.40;74.10
66928;DHT22;59882;45.624;11.698;2022-08-18T12:56:31;24.50;73.80
66928;DHT22;59882;45.624;11.698;2022-08-18T12:59:00;24.70;74.20
66928;DHT22;59882;45.624;11.698;2022-08-18T13:01:26;24.90;73.70
66928;DHT22;59882;45.624;11.698;2022-08-18T13:03:53;25.20;72.90
66928;DHT22;59882;45.624;11.698;2022-08-18T13:06:21;25.50;71.80
66928;DHT22;59882;45.624;11.698;2022-08-18T13:08:48;25.90;71.80
66928;DHT22;59882;45.624;11.698;2022-08-18T13:11:14;26.30;70.10
66928;DHT22;59882;45.624;11.698;2022-08-18T13:13:41;26.60;69.80
66928;DHT22;59882;45.624;11.698;2022-08-18T13:16:07;27.00;68.60
66928;DHT22;59882;45.624;11.698;2022-08-18T13:18:37;27.40;68.20
66928;DHT22;59882;45.624;11.698;2022-08-18T13:21:06;27.90;66.70
66928;DHT22;59882;45.624;11.698;2022-08-18T13:23:32;28.40;64.50
66928;DHT22;59882;45.624;11.698;2022-08-18T13:25:59;28.90;63.20
66928;DHT22;59882;45.624;11.698;2022-08-18T13:28:26;29.30;62.10
66928;DHT22;59882;45.624;11.698;2022-08-18T13:30:51;29.60;59.40
66928;DHT22;59882;45.624;11.698;2022-08-18T13:33:18;29.80;59.20
66928;DHT22;59882;45.624;11.698;2022-08-18T13:35:45;30.20;58.80
66928;DHT22;59882;45.624;11.698;2022-08-18T13:38:12;30.60;56.30
66928;DHT22;59882;45.624;11.698;2022-08-18T13:40:38;31.00;55.00
66928;DHT22;59882;45.624;11.698;2022-08-18T13:43:03;31.30;53.30
66928;DHT22;59882;45.624;11.698;2022-08-18T13:45:29;31.30;54.20
66928;DHT22;59882;45.624;11.698;2022-08-18T13:47:55;31.30;51.60
66928;DHT22;59882;45.624;11.698;2022-08-18T13:50:20;31.20;53.30
66928;DHT22;59882;45.624;11.698;2022-08-18T13:52:47;31.40;51.90
66928;DHT22;59882;45.624;11.698;2022-08-18T13:55:16;31.70;51.20
66928;DHT22;59882;45.624;11.698;2022-08-18T13:57:43;32.00;50.80
66928;DHT22;59882;45.624;11.698;2022-08-18T14:00:17;32.20;48.80
66928;DHT22;59882;45.624;11.698;2022-08-18T14:02:48;32.60;49.70
66928;DHT22;59882;45.624;11.698;2022-08-18T14:05:16;33.20;49.30
66928;DHT22;59882;45.624;11.698;2022-08-18T14:07:43;33.50;48.20
66928;DHT22;59882;45.624;11.698;2022-08-18T14:10:09;33.50;45.70
66928;DHT22;59882;45.624;11.698;2022-08-18T14:12:36;33.20;45.60
66928;DHT22;59882;45.624;11.698;2022-08-18T14:15:05;32.70;47.00
66928;DHT22;59882;45.624;11.698;2022-08-18T14:17:32;32.20;48.60
66928;DHT22;59882;45.624;11.698;2022-08-18T14:19:58;31.80;48.80
66928;DHT22;59882;45.624;11.698;2022-08-18T14:22:43;31.40;49.90
66928;DHT22;59882;45.624;11.698;2022-08-18T14:25:27;30.90;50.40
66928;DHT22;59882;45.624;11.698;2022-08-18T14:28:11;30.30;51.40
66928;DHT22;59882;45.624;11.698;2022-08-18T14:30:37;29.80;52.00
66928;DHT22;59882;45.624;11.698;2022-08-18T14:33:07;29.40;53.30
66928;DHT22;59882;45.624;11.698;2022-08-18T14:35:35;29.20;54.10
66928;DHT22;59882;45.624;11.698;2022-08-18T14:38:01;29.20;54.50
66928;DHT22;59882;45.624;11.698;2022-08-18T14:40:28;29.30;54.90
66928;DHT22;59882;45.624;11.698;2022-08-18T14:42:55;29.40;53.50
66928;DHT22;59882;45.624;11.698;2022-08-18T14:45:24;29.30;54.10
66928;DHT22;59882;45.624;11.698;2022-08-18T14:47:50;29.20;54.10
66928;DHT22;59882;45.624;11.698;2022-08-18T14:50:19;29.00;54.80
66928;DHT22;59882;45.624;11.698;2022-08-18T14:52:44;28.90;55.40
66928;DHT22;59882;45.624;11.698;2022-08-18T14:55:10;28.70;55.80
66928;DHT22;59882;45.624;11.698;2022-08-18T14:57:38;28.60;56.00
66928;DHT22;59882;45.624;11.698;2022-08-18T15:00:10;28.40;56.00
66928;DHT22;59882;45.624;11.698;2022-08-18T15:02:38;28.30;55.90
66928;DHT22;59882;45.624;11.698;2022-08-18T15:05:06;28.10;56.00
66928;DHT22;59882;45.624;11.698;2022-08-18T15:07:33;28.00;56.30
66928;DHT22;59882;45.624;11.698;2022-08-18T15:09:59;28.00;56.20
66928;DHT22;59882;45.624;11.698;2022-08-18T15:12:25;27.90;56.00
66928;DHT22;59882;45.624;11.698;2022-08-18T15:14:53;27.90;56.60
66928;DHT22;59882;45.624;11.698;2022-08-18T15:17:18;27.70;56.80
66928;DHT22;59882;45.624;11.698;2022-08-18T15:19:44;27.70;57.00
66928;DHT22;59882;45.624;11.698;2022-08-18T15:22:12;27.60;57.30
66928;DHT22;59882;45.624;11.698;2022-08-18T15:24:56;27.50;57.60
66928;DHT22;59882;45.624;11.698;2022-08-18T15:27:40;27.40;58.40
66928;DHT22;59882;45.624;11.698;2022-08-18T15:30:09;27.30;58.60
66928;DHT22;59882;45.624;11.698;2022-08-18T15:32:35;27.30;58.90
66928;DHT22;59882;45.624;11.698;2022-08-18T15:35:03;27.40;59.40
66928;DHT22;59882;45.624;11.698;2022-08-18T15:37:32;27.90;58.90
66928;DHT22;59882;45.624;11.698;2022-08-18T15:40:07;28.40;56.80
66928;DHT22;59882;45.624;11.698;2022-08-18T15:42:49;29.20;55.20
66928;DHT22;59882;45.624;11.698;2022-08-18T15:45:17;30.00;53.10
66928;DHT22;59882;45.624;11.698;2022-08-18T15:47:44;30.60;51.80
66928;DHT22;59882;45.624;11.698;2022-08-18T15:50:11;31.20;49.50
66928;DHT22;59882;45.624;11.698;2022-08-18T15:52:47;31.70;49.50
66928;DHT22;59882;45.624;11.698;2022-08-18T15:55:17;32.20;47.20
66928;DHT22;59882;45.624;11.698;2022-08-18T15:57:44;32.60;48.30
66928;DHT22;59882;45.624;11.698;2022-08-18T16:00:11;33.00;45.40
66928;DHT22;59882;45.624;11.698;2022-08-18T16:02:38;33.30;44.50
66928;DHT22;59882;45.624;11.698;2022-08-18T16:05:06;33.50;44.00
66928;DHT22;59882;45.624;11.698;2022-08-18T16:07:32;33.80;43.50
66928;DHT22;59882;45.624;11.698;2022-08-18T16:10:00;34.00;42.70
66928;DHT22;59882;45.624;11.698;2022-08-18T16:12:26;34.10;42.80
66928;DHT22;59882;45.624;11.698;2022-08-18T16:14:51;34.20;42.40
66928;DHT22;59882;45.624;11.698;2022-08-18T16:17:17;34.20;42.00
66928;DHT22;59882;45.624;11.698;2022-08-18T16:19:45;34.20;41.30
66928;DHT22;59882;45.624;11.698;2022-08-18T16:22:11;34.20;43.10
66928;DHT22;59882;45.624;11.698;2022-08-18T16:24:37;34.20;42.50
66928;DHT22;59882;45.624;11.698;2022-08-18T16:27:03;34.10;42.60
66928;DHT22;59882;45.624;11.698;2022-08-18T16:29:31;33.90;42.00
66928;DHT22;59882;45.624;11.698;2022-08-18T16:31:56;33.90;42.60
66928;DHT22;59882;45.624;11.698;2022-08-18T16:34:22;33.70;42.60
66928;DHT22;59882;45.624;11.698;2022-08-18T16:36:48;33.50;42.40
66928;DHT22;59882;45.624;11.698;2022-08-18T16:39:14;33.40;43.60
66928;DHT22;59882;45.624;11.698;2022-08-18T16:41:39;33.30;43.90
66928;DHT22;59882;45.624;11.698;2022-08-18T16:44:05;33.10;43.90
66928;DHT22;59882;45.624;11.698;2022-08-18T16:46:31;33.00;44.40
66928;DHT22;59882;45.624;11.698;2022-08-18T16:48:57;32.90;44.00
66928;DHT22;59882;45.624;11.698;2022-08-18T16:51:25;32.80;44.10
66928;DHT22;59882;45.624;11.698;2022-08-18T16:53:52;32.70;44.30
66928;DHT22;59882;45.624;11.698;2022-08-18T16:56:22;32.50;45.00
66928;DHT22;59882;45.624;11.698;2022-08-18T16:58:48;32.30;45.10
66928;DHT22;59882;45.624;11.698;2022-08-18T17:01:33;32.10;45.60
66928;DHT22;59882;45.624;11.698;2022-08-18T17:04:19;31.90;45.70
66928;DHT22;59882;45.624;11.698;2022-08-18T17:06:47;31.70;46.10
66928;DHT22;59882;45.624;11.698;2022-08-18T17:09:14;31.50;47.00
66928;DHT22;59882;45.624;11.698;2022-08-18T17:11:40;31.30;47.10
66928;DHT22;59882;45.624;11.698;2022-08-18T17:14:06;31.00;47.50
66928;DHT22;59882;45.624;11.698;2022-08-18T17:16:34;30.90;47.60
66928;DHT22;59882;45.624;11.698;2022-08-18T17:19:01;30.70;48.50
66928;DHT22;59882;45.624;11.698;2022-08-18T17:21:29;30.50;49.30
66928;DHT22;59882;45.624;11.698;2022-08-18T17:23:56;30.30;49.70
66928;DHT22;59882;45.624;11.698;2022-08-18T17:29:40;29.90;51.40
66928;DHT22;59882;45.624;11.698;2022-08-18T17:35:05;29.40;52.40
66928;DHT22;59882;45.624;11.698;2022-08-18T17:37:33;29.10;53.10
66928;DHT22;59882;45.624;11.698;2022-08-18T17:40:08;28.90;53.00
66928;DHT22;59882;45.624;11.698;2022-08-18T17:42:34;28.60;53.70
66928;DHT22;59882;45.624;11.698;2022-08-18T17:45:05;28.50;54.20
66928;DHT22;59882;45.624;11.698;2022-08-18T17:50:41;28.10;55.90
66928;DHT22;59882;45.624;11.698;2022-08-18T17:53:27;27.90;56.70
66928;DHT22;59882;45.624;11.698;2022-08-18T17:58:44;27.70;56.80
66928;DHT22;59882;45.624;11.698;2022-08-18T18:01:13;27.70;57.50
66928;DHT22;59882;45.624;11.698;2022-08-18T18:03:42;27.60;58.20
66928;DHT22;59882;45.624;11.698;2022-08-18T18:09:04;27.30;59.30
66928;DHT22;59882;45.624;11.698;2022-08-18T18:11:34;27.20;59.50
66928;DHT22;59882;45.624;11.698;2022-08-18T18:14:21;27.10;59.60
66928;DHT22;59882;45.624;11.698;2022-08-18T18:19:34;26.90;60.00
66928;DHT22;59882;45.624;11.698;2022-08-18T18:22:05;26.90;60.50